createdAt,value
2019-04-22T00:00:53.868Z,3.93
2019-04-22T00:03:32.319Z,3.60
2019-04-22T00:06:16.567Z,3.60
2019-04-22T00:08:53.245Z,3.90
2019-04-22T00:11:26.061Z,3.80
2019-04-22T00:13:53.865Z,3.20
2019-04-22T00:16:27.803Z,3.47
2019-04-22T00:21:26.278Z,3.77
2019-04-22T00:23:53.025Z,3.30
2019-04-22T00:26:37.539Z,3.70
2019-04-22T00:29:21.387Z,3.70
2019-04-22T00:32:03.443Z,4.30
2019-04-22T00:34:40.882Z,3.67
2019-04-22T00:37:25.209Z,3.33
2019-04-22T00:39:51.779Z,3.27
2019-04-22T00:42:27.466Z,3.50
2019-04-22T00:45:04.921Z,3.20
2019-04-22T00:47:30.604Z,3.30
2019-04-22T00:52:28.119Z,3.30
2019-04-22T00:55:10.103Z,3.27
2019-04-22T00:57:28.076Z,3.27
2019-04-22T01:00:28.889Z,3.30
2019-04-22T01:02:59.275Z,3.00
2019-04-22T01:05:32.686Z,4.07
2019-04-22T01:08:04.225Z,3.47
2019-04-22T01:10:28.709Z,3.03
2019-04-22T01:12:56.946Z,3.07
2019-04-22T01:15:28.896Z,3.17
2019-04-22T01:21:00.989Z,3.30
2019-04-22T01:23:08.126Z,3.00
2019-04-22T01:25:34.823Z,3.03
2019-04-22T01:27:58.274Z,3.10
2019-04-22T01:30:25.836Z,3.10
2019-04-22T01:32:50.264Z,3.03
2019-04-22T01:35:28.929Z,3.10
2019-04-22T01:38:05.562Z,2.97
2019-04-22T01:41:05.329Z,3.17
2019-04-22T01:43:32.837Z,3.00
2019-04-22T01:46:03.959Z,3.17
2019-04-22T01:48:36.095Z,2.97
2019-04-22T01:51:01.706Z,3.13
2019-04-22T01:53:33.757Z,2.80
2019-04-22T01:56:06.015Z,3.03
2019-04-22T01:58:31.187Z,3.37
2019-04-22T02:01:33.229Z,3.03
2019-04-22T02:03:54.702Z,3.10
2019-04-22T02:06:30.562Z,2.97
2019-04-22T02:09:01.995Z,3.20
2019-04-22T02:11:32.138Z,3.10
2019-04-22T02:13:59.181Z,3.10
2019-04-22T02:16:27.588Z,3.20
2019-04-22T02:19:01.826Z,3.10
2019-04-22T02:21:28.687Z,3.07
2019-04-22T02:24:27.809Z,3.33
2019-04-22T02:26:54.621Z,2.90
2019-04-22T02:29:27.290Z,3.10
2019-04-22T02:31:58.989Z,3.33
2019-04-22T02:36:58.194Z,2.77
2019-04-22T02:39:29.287Z,3.33
2019-04-22T02:41:54.824Z,3.20
2019-04-22T02:44:43.252Z,3.13
2019-04-22T02:47:18.522Z,3.20
2019-04-22T02:52:23.858Z,3.13
2019-04-22T02:55:02.989Z,3.07
2019-04-22T02:57:27.986Z,3.20
2019-04-22T02:59:50.248Z,3.30
2019-04-22T03:07:31.747Z,3.10
2019-04-22T03:17:55.176Z,3.27
2019-04-22T03:20:09.183Z,3.20
2019-04-22T03:22:34.465Z,3.17
2019-04-22T03:28:05.699Z,2.97
2019-04-22T03:40:42.835Z,3.30
2019-04-22T03:43:09.199Z,2.90
2019-04-22T03:45:37.899Z,3.10
2019-04-22T03:48:17.697Z,3.27
2019-04-22T03:50:36.958Z,2.93
2019-04-22T03:53:29.154Z,3.03
2019-04-22T03:55:45.065Z,3.00
2019-04-22T03:58:13.965Z,3.33
2019-04-22T04:00:47.614Z,3.13
2019-04-22T04:05:54.134Z,3.13
2019-04-22T04:11:07.867Z,3.33
2019-04-22T04:13:39.493Z,3.10
2019-04-22T04:16:10.735Z,3.20
2019-04-22T04:18:49.850Z,3.30
2019-04-22T04:26:17.045Z,3.27
2019-04-22T04:29:27.943Z,3.20
2019-04-22T04:36:41.758Z,2.97
2019-04-22T04:39:05.071Z,2.80
2019-04-22T04:41:42.049Z,3.30
2019-04-22T04:46:51.765Z,3.17
2019-04-22T04:49:39.214Z,2.80
2019-04-22T04:54:44.524Z,2.97
2019-04-22T04:56:56.019Z,3.23
2019-04-22T05:01:58.318Z,2.77
2019-04-22T05:04:53.295Z,3.50
2019-04-22T05:08:00.328Z,2.93
2019-04-22T05:09:55.041Z,3.00
2019-04-22T05:12:41.800Z,3.83
2019-04-22T05:14:55.026Z,3.23
2019-04-22T05:19:50.286Z,3.70
2019-04-22T05:22:20.776Z,3.57
2019-04-22T05:24:51.926Z,3.60
2019-04-22T05:32:30.986Z,3.13
2019-04-22T05:35:00.229Z,3.20
2019-04-22T05:37:34.111Z,3.60
2019-04-22T05:40:08.782Z,3.00
2019-04-22T05:42:28.480Z,3.50
2019-04-22T05:45:10.259Z,3.43
2019-04-22T05:47:32.285Z,3.40
2019-04-22T05:50:11.567Z,3.17
2019-04-22T05:52:40.415Z,3.53
2019-04-22T05:55:14.384Z,3.57
2019-04-22T05:57:47.166Z,3.70
2019-04-22T06:00:28.034Z,3.40
2019-04-22T06:02:53.554Z,3.57
2019-04-22T06:05:16.906Z,3.13
2019-04-22T06:07:55.405Z,3.10
2019-04-22T06:10:29.294Z,3.00
2019-04-22T06:12:57.790Z,3.20
2019-04-22T06:15:29.037Z,3.00
2019-04-22T06:18:12.386Z,3.30
2019-04-22T06:20:40.342Z,3.10
2019-04-22T06:23:12.853Z,2.93
2019-04-22T06:28:23.536Z,2.93
2019-04-22T06:30:49.074Z,2.87
2019-04-22T06:33:20.267Z,3.07
2019-04-22T06:35:54.159Z,3.10
2019-04-22T06:38:30.476Z,3.07
2019-04-22T06:40:54.277Z,2.87
2019-04-22T06:43:22.442Z,3.10
2019-04-22T06:45:54.185Z,3.08
2019-04-22T06:48:27.946Z,3.17
2019-04-22T06:50:56.913Z,3.37
2019-04-22T06:53:29.730Z,2.83
2019-04-22T06:56:01.695Z,2.87
2019-04-22T06:58:28.881Z,3.20
2019-04-22T07:01:04.362Z,3.17
2019-04-22T07:03:44.181Z,3.47
2019-04-22T07:06:08.969Z,3.15
2019-04-22T07:11:11.003Z,3.10
2019-04-22T07:16:13.420Z,3.02
2019-04-22T07:18:45.056Z,2.90
2019-04-22T07:21:16.234Z,2.75
2019-04-22T07:23:55.549Z,2.72
2019-04-22T07:26:18.919Z,2.55
2019-04-22T07:28:51.534Z,2.70
2019-04-22T07:31:20.580Z,2.52
2019-04-22T07:33:56.899Z,2.60
2019-04-22T07:38:56.554Z,2.60
2019-04-22T07:41:29.065Z,2.60
2019-04-22T07:44:13.078Z,2.70
2019-04-22T07:47:15.248Z,2.65
2019-04-22T07:49:43.363Z,3.15
2019-04-22T07:52:15.972Z,3.03
2019-04-22T07:54:50.916Z,2.50
2019-04-22T07:57:26.277Z,3.00
2019-04-22T07:59:57.198Z,3.07
2019-04-22T08:02:25.528Z,3.40
2019-04-22T08:07:34.446Z,3.20
2019-04-22T08:10:18.894Z,3.00
2019-04-22T08:12:45.694Z,3.20
2019-04-22T08:15:12.864Z,3.07
2019-04-22T08:23:20.498Z,2.60
2019-04-22T08:25:46.155Z,3.17
2019-04-22T08:28:17.792Z,2.60
2019-04-22T08:31:01.944Z,2.70
2019-04-22T08:34:12.090Z,3.07
2019-04-22T08:36:40.569Z,2.97
2019-04-22T08:41:31.906Z,2.90
2019-04-22T08:46:35.156Z,3.20
2019-04-22T08:49:00.738Z,2.90
2019-04-22T08:51:30.788Z,3.20
2019-04-22T08:59:10.965Z,3.07
2019-04-22T09:01:35.875Z,3.63
2019-04-22T09:04:05.759Z,3.50
2019-04-22T09:07:02.416Z,2.73
2019-04-22T09:09:24.987Z,3.07
2019-04-22T09:14:26.062Z,2.87
2019-04-22T09:16:48.674Z,3.27
2019-04-22T09:19:23.834Z,3.65
2019-04-22T09:24:45.940Z,3.10
2019-04-22T09:27:22.864Z,2.90
2019-04-22T09:29:54.016Z,3.00
2019-04-22T09:32:31.717Z,3.00
2019-04-22T09:34:51.339Z,3.47
2019-04-22T09:40:04.575Z,2.90
2019-04-22T09:42:37.143Z,2.93
2019-04-22T09:44:59.210Z,2.75
2019-04-22T09:47:36.067Z,2.55
2019-04-22T09:52:42.112Z,2.10
2019-04-22T10:00:08.852Z,2.60
2019-04-22T10:02:41.047Z,3.02
2019-04-22T10:05:15.092Z,2.67
2019-04-22T10:07:42.644Z,2.42
2019-04-22T10:10:26.861Z,2.58
2019-04-22T10:12:54.057Z,2.80
2019-04-22T10:15:39.682Z,2.40
2019-04-22T10:18:12.806Z,2.27
2019-04-22T10:20:38.094Z,2.80
2019-04-22T10:23:12.841Z,2.58
2019-04-22T10:25:45.488Z,2.50
2019-04-22T10:28:21.133Z,2.75
2019-04-22T10:37:00.900Z,2.70
2019-04-22T10:39:37.862Z,2.45
2019-04-22T11:48:09.285Z,2.55
2019-04-22T11:50:40.013Z,2.80
2019-04-22T11:53:09.281Z,2.80
2019-04-22T11:55:38.834Z,2.95
2019-04-22T11:58:08.737Z,2.95
2019-04-22T12:00:39.331Z,3.33
2019-04-22T12:03:09.304Z,3.40
2019-04-22T12:05:39.786Z,2.87
2019-04-22T12:08:09.404Z,3.40
2019-04-22T12:10:46.901Z,3.22
2019-04-22T12:13:10.401Z,3.33
2019-04-22T12:15:40.830Z,2.95
2019-04-22T12:18:11.174Z,2.70
2019-04-22T12:20:41.426Z,2.95
2019-04-22T12:23:12.721Z,2.60
2019-04-22T12:25:50.380Z,2.70
2019-04-22T12:28:13.188Z,2.55
2019-04-22T12:30:43.690Z,2.80
2019-04-22T12:33:14.923Z,2.75
2019-04-22T12:35:44.429Z,2.77
2019-04-22T12:38:15.230Z,2.80
2019-04-22T12:40:53.133Z,2.55
2019-04-22T12:43:20.207Z,2.55
2019-04-22T12:45:49.909Z,2.60
2019-04-22T12:48:21.166Z,2.90
2019-04-22T12:50:54.247Z,2.65
2019-04-22T12:53:25.714Z,2.70
2019-04-22T12:55:57.330Z,2.50
2019-04-22T12:58:33.859Z,2.20
2019-04-22T13:01:17.015Z,2.60
2019-04-22T13:03:46.978Z,2.60
2019-04-22T13:06:17.536Z,2.50
2019-04-22T13:08:47.676Z,2.20
2019-04-22T13:11:21.344Z,2.62
2019-04-22T13:13:49.366Z,2.60
2019-04-22T13:16:20.720Z,2.62
2019-04-22T13:18:56.534Z,2.70
2019-04-22T13:21:22.569Z,2.40
2019-04-22T13:23:53.122Z,2.22
2019-04-22T13:26:23.157Z,2.50
2019-04-22T13:28:52.744Z,2.40
2019-04-22T13:31:22.796Z,2.10
2019-04-22T13:33:54.954Z,1.80
2019-04-22T13:36:25.554Z,2.10
2019-04-22T13:38:55.215Z,1.90
2019-04-22T13:41:35.453Z,2.12
2019-04-22T13:43:56.155Z,1.50
2019-04-22T13:46:30.942Z,1.80
2019-04-22T13:49:23.973Z,1.80
2019-04-22T13:57:04.892Z,1.95
2019-04-22T13:59:11.522Z,1.80
2019-04-22T14:01:42.958Z,1.87
2019-04-22T14:04:18.555Z,1.80
2019-04-22T14:06:49.095Z,1.60
2019-04-22T14:09:20.328Z,1.70
2019-04-22T14:11:56.703Z,1.75
2019-04-22T14:14:22.128Z,2.10
2019-04-22T14:16:51.086Z,1.72
2019-04-22T14:19:23.652Z,1.87
2019-04-22T14:21:53.895Z,1.80
2019-04-22T14:24:23.781Z,2.10
2019-04-22T14:27:07.198Z,1.82
2019-04-22T14:29:23.966Z,2.02
2019-04-22T14:32:02.831Z,2.02
2019-04-22T14:34:24.274Z,1.92
2019-04-22T14:36:55.307Z,2.00
2019-04-22T14:39:26.026Z,1.87
2019-04-22T14:42:15.767Z,2.20
2019-04-22T14:47:19.623Z,1.82
2019-04-22T14:49:48.088Z,1.90
2019-04-22T14:52:22.774Z,2.10
2019-04-22T14:54:43.482Z,2.12
2019-04-22T14:57:01.317Z,2.17
2019-04-22T14:59:32.569Z,2.02
2019-04-22T15:02:01.891Z,1.92
2019-04-22T15:04:31.159Z,2.20
2019-04-22T15:07:01.164Z,1.92
2019-04-22T15:09:32.112Z,1.90
2019-04-22T15:12:12.057Z,1.95
2019-04-22T15:14:33.147Z,1.80
2019-04-22T15:17:20.708Z,1.90
2019-04-22T15:20:17.221Z,2.10
2019-04-22T15:22:46.533Z,1.90
2019-04-22T15:25:16.709Z,1.62
2019-04-22T15:27:45.988Z,2.10
2019-04-22T15:30:15.209Z,2.33
2019-04-22T15:32:45.537Z,1.90
2019-04-22T15:35:15.521Z,1.72
2019-04-22T15:37:45.683Z,1.57
2019-04-22T15:40:16.427Z,1.80
2019-04-22T15:42:46.970Z,1.60
2019-04-22T15:45:18.801Z,1.60
2019-04-22T15:47:48.276Z,1.42
2019-04-22T15:50:18.994Z,1.55
2019-04-22T15:52:51.961Z,1.75
2019-04-22T15:55:20.599Z,1.55
2019-04-22T15:57:49.852Z,1.40
2019-04-22T16:00:34.715Z,1.50
2019-04-22T16:02:50.036Z,1.50
2019-04-22T16:05:20.747Z,1.35
2019-04-22T16:07:50.727Z,1.25
2019-04-22T16:10:22.017Z,1.60
2019-04-22T16:12:57.493Z,1.70
2019-04-22T16:15:22.508Z,1.42
2019-04-22T16:17:52.947Z,1.40
2019-04-22T16:20:23.312Z,1.40
2019-04-22T16:23:20.237Z,1.40
2019-04-22T16:26:09.639Z,1.30
2019-04-22T16:28:39.707Z,1.30
2019-04-22T16:31:09.571Z,1.12
2019-04-22T16:33:41.683Z,1.30
2019-04-22T16:36:11.045Z,1.55
2019-04-22T16:38:40.799Z,1.20
2019-04-22T16:41:10.894Z,1.10
2019-04-22T16:43:40.743Z,1.30
2019-04-22T16:46:09.906Z,1.42
2019-04-22T16:48:39.971Z,1.50
2019-04-22T16:51:11.882Z,1.40
2019-04-22T16:53:45.227Z,1.60
2019-04-22T16:56:15.377Z,1.27
2019-04-22T16:58:54.707Z,1.50
2019-04-22T17:04:55.777Z,1.45
2019-04-22T17:07:26.544Z,1.52
2019-04-22T17:10:15.594Z,1.40
2019-04-22T17:12:54.299Z,1.50
2019-04-22T17:15:24.081Z,1.40
2019-04-22T17:17:54.931Z,1.80
2019-04-22T17:20:25.135Z,1.65
2019-04-22T17:22:55.974Z,1.70
2019-04-22T17:25:26.580Z,1.65
2019-04-22T17:27:57.377Z,1.50
2019-04-22T17:30:29.127Z,1.67
2019-04-22T17:33:00.905Z,1.60
2019-04-22T17:35:31.608Z,1.60
2019-04-22T17:38:10.154Z,1.80
2019-04-22T17:40:51.216Z,1.60
2019-04-22T17:43:36.209Z,1.95
2019-04-22T17:46:07.176Z,1.80
2019-04-22T17:48:53.342Z,1.70
2019-04-22T17:51:29.838Z,1.90
2019-04-22T17:53:57.982Z,1.92
2019-04-22T17:56:27.578Z,1.90
2019-04-22T17:58:57.076Z,1.90
2019-04-22T18:01:29.947Z,1.87
2019-04-22T18:03:48.568Z,1.90
2019-04-22T18:06:39.177Z,1.72
2019-04-22T18:09:01.797Z,1.80
2019-04-22T18:11:44.606Z,2.00
2019-04-22T18:14:26.076Z,2.10
2019-04-22T18:16:41.468Z,1.92
2019-04-22T18:19:13.952Z,2.00
2019-04-22T18:21:35.026Z,2.00
2019-04-22T18:24:04.890Z,2.00
2019-04-22T18:26:47.957Z,2.10
2019-04-22T18:29:17.438Z,1.72
2019-04-22T18:31:45.087Z,2.12
2019-04-22T18:34:16.976Z,2.00
2019-04-22T18:36:54.123Z,1.90
2019-04-22T18:39:36.346Z,1.90
2019-04-22T18:41:58.638Z,1.73
2019-04-22T18:44:34.768Z,2.08
2019-04-22T18:47:00.996Z,2.20
2019-04-22T18:49:40.605Z,2.07
2019-04-22T18:52:24.606Z,2.10
2019-04-22T18:55:14.277Z,2.27
2019-04-22T18:58:01.031Z,2.10
2019-04-22T19:00:18.113Z,1.80
2019-04-22T19:02:55.862Z,1.90
2019-04-22T19:05:42.680Z,2.00
2019-04-22T19:08:24.135Z,2.10
2019-04-22T19:10:57.605Z,2.10
2019-04-22T19:16:01.744Z,1.90
2019-04-22T19:18:31.901Z,1.83
2019-04-22T19:21:01.267Z,2.00
2019-04-22T19:23:29.039Z,2.17
2019-04-22T19:25:58.642Z,2.00
2019-04-22T19:28:46.475Z,1.83
2019-04-22T19:31:09.367Z,2.07
2019-04-22T19:34:03.308Z,1.73
2019-04-22T19:36:32.249Z,2.07
2019-04-22T19:38:59.256Z,2.30
2019-04-22T19:41:38.911Z,2.10
2019-04-22T19:44:10.325Z,1.87
2019-04-22T19:46:42.425Z,2.07
2019-04-22T19:49:21.980Z,2.10
2019-04-22T19:51:55.878Z,2.00
2019-04-22T19:54:15.348Z,2.20
2019-04-22T19:56:38.350Z,1.93
2019-04-22T19:59:17.519Z,2.00
2019-04-22T20:02:04.324Z,2.33
2019-04-22T20:04:52.930Z,1.83
2019-04-22T20:07:15.458Z,2.20
2019-04-22T20:09:55.618Z,2.10
2019-04-22T20:12:21.725Z,2.10
2019-04-22T20:14:49.601Z,2.10
2019-04-22T20:17:28.598Z,2.03
2019-04-22T20:20:17.560Z,2.30
2019-04-22T20:22:26.712Z,2.27
2019-04-22T20:24:47.173Z,2.40
2019-04-22T20:27:30.412Z,2.37
2019-04-22T20:30:04.933Z,2.40
2019-04-22T20:32:34.500Z,2.30
2019-04-22T20:35:12.589Z,2.93
2019-04-22T20:40:10.295Z,2.10
2019-04-22T20:42:48.409Z,2.70
2019-04-22T20:45:14.949Z,2.60
2019-04-22T20:47:40.445Z,2.27
2019-04-22T20:50:21.786Z,2.40
2019-04-22T20:52:53.991Z,2.50
2019-04-22T20:55:17.654Z,2.47
2019-04-22T20:57:53.074Z,2.57
2019-04-22T21:00:20.172Z,2.67
2019-04-22T21:02:50.532Z,3.00
2019-04-22T21:05:23.361Z,3.10
2019-04-22T21:08:08.049Z,2.60
2019-04-22T21:10:28.730Z,2.80
2019-04-22T21:13:01.276Z,2.70
2019-04-22T21:15:40.778Z,2.53
2019-04-22T21:18:08.349Z,2.83
2019-04-22T21:20:48.049Z,2.73
2019-04-22T21:23:13.904Z,2.80
2019-04-22T21:25:32.670Z,2.80
2019-04-22T21:28:17.527Z,3.17
2019-04-22T21:30:43.378Z,3.20
2019-04-22T21:33:11.887Z,3.20
2019-04-22T21:36:16.821Z,3.40
2019-04-22T21:38:29.243Z,3.60
2019-04-22T21:40:54.769Z,3.40
2019-04-22T21:43:30.524Z,3.27
2019-04-22T21:46:01.294Z,3.37
2019-04-22T21:48:36.672Z,3.50
2019-04-22T21:51:04.823Z,3.27
2019-04-22T21:53:48.847Z,3.03
2019-04-22T21:56:29.334Z,3.37
2019-04-22T21:59:01.608Z,3.23
2019-04-22T22:01:52.762Z,3.33
2019-04-22T22:04:20.691Z,3.53
2019-04-22T22:06:42.585Z,3.80
2019-04-22T22:09:25.080Z,3.23
2019-04-22T22:11:59.756Z,3.43
2019-04-22T22:14:29.005Z,3.53
2019-04-22T22:16:54.678Z,3.43
2019-04-22T22:19:34.104Z,3.30
2019-04-22T22:22:16.291Z,3.20
2019-04-22T22:24:41.372Z,3.10
2019-04-22T22:27:10.370Z,3.73
2019-04-22T22:29:59.913Z,3.93
2019-04-22T22:32:27.516Z,3.57
2019-04-22T22:34:57.317Z,3.33
2019-04-22T22:37:13.368Z,3.40
2019-04-22T22:39:44.866Z,3.40
2019-04-22T22:42:10.872Z,3.53
2019-04-22T22:44:47.997Z,3.70
2019-04-22T22:47:32.975Z,3.60
2019-04-22T22:50:03.270Z,3.70
2019-04-22T22:52:51.814Z,3.80
2019-04-22T22:55:12.055Z,3.30
2019-04-22T22:57:38.313Z,3.90
2019-04-22T23:12:04.822Z,3.97
2019-04-22T23:14:34.397Z,3.80
2019-04-22T23:16:47.423Z,4.10
2019-04-22T23:19:11.122Z,4.13
2019-04-22T23:21:45.906Z,4.20
2019-04-22T23:24:44.016Z,3.93
2019-04-22T23:27:21.097Z,4.20
2019-04-22T23:30:02.562Z,4.17
2019-04-22T23:32:35.780Z,3.97
2019-04-22T23:35:22.698Z,4.33
2019-04-22T23:38:07.446Z,3.90
2019-04-22T23:40:37.096Z,4.07
2019-04-22T23:43:07.131Z,4.00
2019-04-22T23:45:41.669Z,3.93
2019-04-22T23:48:09.818Z,4.10
2019-04-22T23:50:48.020Z,4.43
2019-04-22T23:53:55.481Z,4.10
2019-04-22T23:56:17.497Z,3.87
2019-04-22T23:58:50.511Z,4.60
